Time;durP1;ratioP1;P1;durP2;ratioP2;P2;SDS_P1;SDS_P2;PMS_P1;PMS_P2;Temp;Humidity;BMP_temperature;BMP_pressure;BME280_temperature;BME280_humidity;BME280_pressure;Samples;Min_cycle;Max_cycle;Signal;HPM_P1;HPM_P2
2023/08/21 00:00:38;;;;;;;20.50;18.50;;;;;;;-128.00;-1.00;-1.00;105601;1253;1004314;-69
2023/08/21 00:03:25;;;;;;;19.40;17.80;;;;;;;-128.00;-1.00;-1.00;105757;1253;1046642;-69
2023/08/21 00:05:51;;;;;;;20.60;18.70;;;;;;;-128.00;-1.00;-1.00;105751;1252;1004120;-70
2023/08/21 00:08:18;;;;;;;19.90;18.30;;;;;;;-128.00;-1.00;-1.00;105688;1252;1004197;-70
2023/08/21 00:10:44;;;;;;;22.00;20.10;;;;;;;-128.00;-1.00;-1.00;105651;1253;1006253;-70
2023/08/21 00:13:11;;;;;;;21.90;20.00;;;;;;;-128.00;-1.00;-1.00;105705;1252;1005312;-70
2023/08/21 00:15:38;;;;;;;20.50;18.70;;;;;;;-128.00;-1.00;-1.00;105663;1253;1003511;-70
2023/08/21 00:18:05;;;;;;;20.80;19.00;;;;;;;-128.00;-1.00;-1.00;105598;1252;1005022;-70
2023/08/21 00:20:32;;;;;;;22.90;20.90;;;;;;;-128.00;-1.00;-1.00;105699;1252;1005504;-69
2023/08/21 00:22:58;;;;;;;22.50;20.40;;;;;;;-128.00;-1.00;-1.00;105667;1252;1004352;-69
2023/08/21 00:25:25;;;;;;;22.30;20.20;;;;;;;-128.00;-1.00;-1.00;105733;1252;1004460;-71
2023/08/21 00:27:51;;;;;;;22.60;20.70;;;;;;;-128.00;-1.00;-1.00;105681;1252;1004972;-69
2023/08/21 00:30:18;;;;;;;22.40;20.30;;;;;;;-128.00;-1.00;-1.00;105700;1252;1003500;-69
2023/08/21 00:32:45;;;;;;;23.40;21.30;;;;;;;-128.00;-1.00;-1.00;105645;1252;1003428;-70
2023/08/21 00:35:11;;;;;;;22.90;20.50;;;;;;;-128.00;-1.00;-1.00;105730;1252;1004121;-69
2023/08/21 00:37:38;;;;;;;23.80;21.80;;;;;;;-128.00;-1.00;-1.00;105695;1251;1004494;-69
2023/08/21 00:40:05;;;;;;;22.20;20.10;;;;;;;-128.00;-1.00;-1.00;105734;1253;1004113;-69
2023/08/21 00:42:31;;;;;;;21.00;19.20;;;;;;;-128.00;-1.00;-1.00;105594;1254;1004484;-69
2023/08/21 00:44:58;;;;;;;21.00;19.20;;;;;;;-128.00;-1.00;-1.00;105654;1252;1004157;-69
2023/08/21 00:47:25;;;;;;;21.30;19.20;;;;;;;-128.00;-1.00;-1.00;105707;1251;1003695;-70
2023/08/21 00:49:52;;;;;;;21.00;19.00;;;;;;;-128.00;-1.00;-1.00;105709;1251;1004379;-69
2023/08/21 00:52:19;;;;;;;21.50;19.70;;;;;;;-128.00;-1.00;-1.00;105735;1252;1003918;-69
2023/08/21 00:54:45;;;;;;;22.10;20.10;;;;;;;-128.00;-1.00;-1.00;105618;1254;1003652;-70
2023/08/21 00:57:12;;;;;;;20.90;19.20;;;;;;;-128.00;-1.00;-1.00;105669;1252;1003610;-70
2023/08/21 00:59:39;;;;;;;21.10;19.40;;;;;;;-128.00;-1.00;-1.00;105703;1252;1004230;-70
2023/08/21 01:02:06;;;;;;;22.10;19.80;;;;;;;-128.00;-1.00;-1.00;105698;1252;1003824;-70
2023/08/21 01:04:32;;;;;;;21.20;19.30;;;;;;;-128.00;-1.00;-1.00;105694;1252;1003716;-68
2023/08/21 01:06:59;;;;;;;20.80;19.00;;;;;;;-128.00;-1.00;-1.00;105704;1253;1004186;-69
2023/08/21 01:09:41;;;;;;;21.50;19.60;;;;;;;-128.00;-1.00;-1.00;105693;1253;1004857;-69
2023/08/21 01:12:23;;;;;;;22.10;20.10;;;;;;;-128.00;-1.00;-1.00;105619;1252;1059952;-69
2023/08/21 01:15:06;;;;;;;22.50;20.30;;;;;;;-128.00;-1.00;-1.00;105684;1252;1046140;-69
2023/08/21 01:17:34;;;;;;;21.00;19.20;;;;;;;-128.00;-1.00;-1.00;105686;1252;1046543;-69
2023/08/21 01:20:02;;;;;;;21.70;19.80;;;;;;;-128.00;-1.00;-1.00;105776;1252;1061963;-69
2023/08/21 01:22:37;;;;;;;20.90;19.10;;;;;;;-128.00;-1.00;-1.00;105486;1253;1003654;-69
2023/08/21 01:25:09;;;;;;;21.20;19.30;;;;;;;-128.00;-1.00;-1.00;105656;1253;1058958;-68
2023/08/21 01:27:35;;;;;;;19.60;17.80;;;;;;;-128.00;-1.00;-1.00;105690;1252;1046307;-69
2023/08/21 01:30:05;;;;;;;18.90;17.20;;;;;;;-128.00;-1.00;-1.00;105718;1252;1005835;-70
2023/08/21 01:32:51;;;;;;;19.80;18.10;;;;;;;-128.00;-1.00;-1.00;105652;1251;1061022;-69
2023/08/21 01:35:19;;;;;;;20.90;19.10;;;;;;;-128.00;-1.00;-1.00;105714;1253;1055542;-70
2023/08/21 01:37:46;;;;;;;21.00;19.00;;;;;;;-128.00;-1.00;-1.00;105556;1252;1003762;-70
2023/08/21 01:40:19;;;;;;;20.20;18.40;;;;;;;-128.00;-1.00;-1.00;105711;1252;1003578;-70
2023/08/21 01:42:45;;;;;;;20.40;18.70;;;;;;;-128.00;-1.00;-1.00;105734;1251;1047219;-70
2023/08/21 01:45:12;;;;;;;23.20;21.10;;;;;;;-128.00;-1.00;-1.00;105668;1252;1004480;-70
2023/08/21 01:47:38;;;;;;;21.20;19.50;;;;;;;-128.00;-1.00;-1.00;105707;1253;1003738;-68
2023/08/21 01:50:05;;;;;;;22.60;20.60;;;;;;;-128.00;-1.00;-1.00;105659;1252;1006206;-66
2023/08/21 01:52:32;;;;;;;20.70;18.80;;;;;;;-128.00;-1.00;-1.00;105587;1252;1004716;-67
2023/08/21 01:54:59;;;;;;;19.90;18.20;;;;;;;-128.00;-1.00;-1.00;105691;1252;1004938;-66
2023/08/21 01:57:26;;;;;;;18.90;17.10;;;;;;;-128.00;-1.00;-1.00;105720;1251;1004485;-66
2023/08/21 01:59:52;;;;;;;20.20;18.60;;;;;;;-128.00;-1.00;-1.00;105669;1253;1005182;-66
2023/08/21 02:02:19;;;;;;;21.30;19.40;;;;;;;-128.00;-1.00;-1.00;105650;1252;1003500;-66
2023/08/21 02:04:45;;;;;;;19.80;18.10;;;;;;;-128.00;-1.00;-1.00;105695;1252;1004829;-66
2023/08/21 02:07:12;;;;;;;20.20;18.30;;;;;;;-128.00;-1.00;-1.00;105721;1252;1004300;-67
2023/08/21 02:09:39;;;;;;;19.10;17.30;;;;;;;-128.00;-1.00;-1.00;105746;1251;1004120;-66
2023/08/21 02:12:05;;;;;;;19.90;18.10;;;;;;;-128.00;-1.00;-1.00;105610;1253;1003741;-66
2023/08/21 02:14:32;;;;;;;19.30;17.80;;;;;;;-128.00;-1.00;-1.00;105680;1251;1004684;-66
2023/08/21 02:16:58;;;;;;;17.80;16.30;;;;;;;-128.00;-1.00;-1.00;105687;1252;1003873;-67
2023/08/21 02:19:25;;;;;;;17.60;16.00;;;;;;;-128.00;-1.00;-1.00;105701;1252;1004758;-67
2023/08/21 02:21:51;;;;;;;19.10;17.40;;;;;;;-128.00;-1.00;-1.00;105704;1252;1003961;-66
2023/08/21 02:24:18;;;;;;;18.50;16.90;;;;;;;-128.00;-1.00;-1.00;105730;1252;1005199;-66
2023/08/21 02:26:45;;;;;;;17.50;16.10;;;;;;;-128.00;-1.00;-1.00;105712;1252;1003704;-67
2023/08/21 02:29:12;;;;;;;17.40;15.80;;;;;;;-128.00;-1.00;-1.00;105693;1252;1004404;-67
2023/08/21 02:31:38;;;;;;;18.10;16.50;;;;;;;-128.00;-1.00;-1.00;105685;1252;1004377;-67
2023/08/21 02:34:05;;;;;;;19.70;17.90;;;;;;;-128.00;-1.00;-1.00;105728;1252;1004596;-67
2023/08/21 02:36:31;;;;;;;18.30;16.80;;;;;;;-128.00;-1.00;-1.00;105693;1252;1005812;-66
2023/08/21 02:38:58;;;;;;;17.80;16.20;;;;;;;-128.00;-1.00;-1.00;105714;1252;1003987;-66
2023/08/21 02:41:24;;;;;;;21.30;19.50;;;;;;;-128.00;-1.00;-1.00;105708;1252;1004477;-66
2023/08/21 02:43:51;;;;;;;23.20;20.90;;;;;;;-128.00;-1.00;-1.00;105676;1252;1004099;-67
2023/08/21 02:46:17;;;;;;;21.50;19.70;;;;;;;-128.00;-1.00;-1.00;105695;1252;1004646;-66
2023/08/21 02:48:44;;;;;;;19.90;18.20;;;;;;;-128.00;-1.00;-1.00;105702;1252;1005431;-66
2023/08/21 02:51:10;;;;;;;19.70;18.00;;;;;;;-128.00;-1.00;-1.00;105663;1252;1005381;-66
2023/08/21 02:53:37;;;;;;;21.10;19.10;;;;;;;-128.00;-1.00;-1.00;105676;1251;1005351;-66
2023/08/21 02:56:03;;;;;;;23.90;21.90;;;;;;;-128.00;-1.00;-1.00;105739;1252;1004452;-66
2023/08/21 02:58:30;;;;;;;22.80;20.80;;;;;;;-128.00;-1.00;-1.00;105705;1252;1004362;-66
2023/08/21 03:00:57;;;;;;;23.70;21.30;;;;;;;-128.00;-1.00;-1.00;105707;1253;1004415;-67
2023/08/21 03:03:23;;;;;;;25.60;23.50;;;;;;;-128.00;-1.00;-1.00;105656;1252;1003445;-67
2023/08/21 03:05:50;;;;;;;23.30;21.10;;;;;;;-128.00;-1.00;-1.00;105703;1252;1004826;-66
2023/08/21 03:08:16;;;;;;;24.40;22.40;;;;;;;-128.00;-1.00;-1.00;105763;1252;1004420;-67
2023/08/21 03:10:43;;;;;;;23.00;20.80;;;;;;;-128.00;-1.00;-1.00;105679;1252;1005039;-66
2023/08/21 03:13:10;;;;;;;23.00;21.00;;;;;;;-128.00;-1.00;-1.00;105737;1253;1005729;-66
2023/08/21 03:15:36;;;;;;;22.50;20.40;;;;;;;-128.00;-1.00;-1.00;105724;1251;1004539;-66
2023/08/21 03:18:03;;;;;;;24.20;22.10;;;;;;;-128.00;-1.00;-1.00;105687;1252;1004719;-66
2023/08/21 03:20:29;;;;;;;24.40;22.10;;;;;;;-128.00;-1.00;-1.00;105726;1251;1004319;-67
2023/08/21 03:22:56;;;;;;;22.90;20.80;;;;;;;-128.00;-1.00;-1.00;105752;1252;1003895;-66
2023/08/21 03:25:23;;;;;;;22.50;20.60;;;;;;;-128.00;-1.00;-1.00;105686;1252;1003613;-66
2023/08/21 03:27:49;;;;;;;24.00;21.80;;;;;;;-128.00;-1.00;-1.00;105715;1252;1004158;-68
2023/08/21 03:30:16;;;;;;;23.90;21.70;;;;;;;-128.00;-1.00;-1.00;105696;1251;1004281;-67
2023/08/21 03:32:43;;;;;;;24.90;22.50;;;;;;;-128.00;-1.00;-1.00;105756;1253;1004609;-66
2023/08/21 03:35:09;;;;;;;23.90;21.90;;;;;;;-128.00;-1.00;-1.00;105714;1253;1004615;-67
2023/08/21 03:37:36;;;;;;;24.10;22.10;;;;;;;-128.00;-1.00;-1.00;105739;1251;1004062;-67
2023/08/21 03:40:04;;;;;;;25.00;22.70;;;;;;;-128.00;-1.00;-1.00;105710;1251;1004950;-67
2023/08/21 03:42:30;;;;;;;24.00;21.90;;;;;;;-128.00;-1.00;-1.00;105576;1252;1005166;-68
2023/08/21 03:44:57;;;;;;;26.30;23.80;;;;;;;-128.00;-1.00;-1.00;105678;1253;1004362;-67
2023/08/21 03:47:23;;;;;;;25.10;22.70;;;;;;;-128.00;-1.00;-1.00;105731;1252;1005673;-68
2023/08/21 03:49:50;;;;;;;24.40;22.30;;;;;;;-128.00;-1.00;-1.00;105686;1253;1004355;-67
2023/08/21 03:52:16;;;;;;;24.90;22.80;;;;;;;-128.00;-1.00;-1.00;105676;1253;1003714;-68
2023/08/21 03:54:43;;;;;;;24.50;22.30;;;;;;;-128.00;-1.00;-1.00;105690;1253;1003383;-67
2023/08/21 03:57:09;;;;;;;24.40;22.30;;;;;;;-128.00;-1.00;-1.00;105715;1252;1004190;-67
2023/08/21 03:59:36;;;;;;;26.00;23.50;;;;;;;-128.00;-1.00;-1.00;105709;1253;1004739;-67
2023/08/21 04:02:03;;;;;;;24.20;22.00;;;;;;;-128.00;-1.00;-1.00;105705;1253;1004963;-68
2023/08/21 04:04:30;;;;;;;25.00;22.80;;;;;;;-128.00;-1.00;-1.00;105685;1251;1004811;-66
2023/08/21 04:06:56;;;;;;;23.90;21.80;;;;;;;-128.00;-1.00;-1.00;105622;1252;1003988;-68
2023/08/21 04:09:23;;;;;;;22.20;20.50;;;;;;;-128.00;-1.00;-1.00;105691;1252;1004649;-67
2023/08/21 04:11:49;;;;;;;22.40;20.50;;;;;;;-128.00;-1.00;-1.00;105740;1251;1004534;-67
2023/08/21 04:14:16;;;;;;;20.70;19.00;;;;;;;-128.00;-1.00;-1.00;105744;1252;1004113;-67
2023/08/21 04:16:42;;;;;;;21.80;20.00;;;;;;;-128.00;-1.00;-1.00;105728;1252;1004889;-67
2023/08/21 04:19:09;;;;;;;20.80;19.00;;;;;;;-128.00;-1.00;-1.00;105678;1253;1004628;-67
2023/08/21 04:21:35;;;;;;;18.80;17.30;;;;;;;-128.00;-1.00;-1.00;105729;1252;1004484;-68
2023/08/21 04:24:02;;;;;;;19.40;17.80;;;;;;;-128.00;-1.00;-1.00;105712;1252;1004105;-68
2023/08/21 04:26:28;;;;;;;18.10;16.60;;;;;;;-128.00;-1.00;-1.00;105701;1252;1004823;-68
2023/08/21 04:28:55;;;;;;;17.90;16.50;;;;;;;-128.00;-1.00;-1.00;105724;1252;1005739;-68
2023/08/21 04:31:21;;;;;;;18.00;16.50;;;;;;;-128.00;-1.00;-1.00;105729;1252;1005549;-68
2023/08/21 04:33:48;;;;;;;17.60;16.10;;;;;;;-128.00;-1.00;-1.00;105696;1251;1005141;-68
2023/08/21 04:36:16;;;;;;;18.00;16.40;;;;;;;-128.00;-1.00;-1.00;105741;1253;1003866;-68
2023/08/21 04:38:43;;;;;;;16.20;14.90;;;;;;;-128.00;-1.00;-1.00;105776;1253;1004318;-68
2023/08/21 04:41:10;;;;;;;15.30;14.10;;;;;;;-128.00;-1.00;-1.00;105762;1253;1003541;-66
2023/08/21 04:43:36;;;;;;;15.30;13.90;;;;;;;-128.00;-1.00;-1.00;105702;1253;1003655;-68
2023/08/21 04:46:04;;;;;;;15.40;13.80;;;;;;;-128.00;-1.00;-1.00;105687;1252;1004276;-69
2023/08/21 04:48:30;;;;;;;14.70;13.70;;;;;;;-128.00;-1.00;-1.00;105589;1252;1003511;-67
2023/08/21 04:50:57;;;;;;;16.80;15.40;;;;;;;-128.00;-1.00;-1.00;105751;1253;1004576;-68
2023/08/21 04:53:23;;;;;;;17.00;15.60;;;;;;;-128.00;-1.00;-1.00;105703;1252;1003959;-67
2023/08/21 04:55:50;;;;;;;16.60;15.20;;;;;;;-128.00;-1.00;-1.00;105659;1252;1003924;-67
2023/08/21 04:58:17;;;;;;;16.50;15.10;;;;;;;-128.00;-1.00;-1.00;105679;1252;1005062;-66
2023/08/21 05:00:46;;;;;;;17.80;16.20;;;;;;;-128.00;-1.00;-1.00;105730;1252;1003875;-67
2023/08/21 05:03:12;;;;;;;18.10;16.60;;;;;;;-128.00;-1.00;-1.00;105665;1253;1054825;-67
2023/08/21 05:05:39;;;;;;;18.30;16.70;;;;;;;-128.00;-1.00;-1.00;105653;1252;1004852;-66
2023/08/21 05:08:06;;;;;;;19.00;17.10;;;;;;;-128.00;-1.00;-1.00;105672;1253;1004682;-67
2023/08/21 05:10:32;;;;;;;17.60;16.20;;;;;;;-128.00;-1.00;-1.00;105712;1252;1003926;-67
2023/08/21 05:12:59;;;;;;;17.40;15.90;;;;;;;-128.00;-1.00;-1.00;105689;1253;1005031;-68
2023/08/21 05:15:25;;;;;;;18.10;16.50;;;;;;;-128.00;-1.00;-1.00;105689;1253;1004751;-67
2023/08/21 05:17:52;;;;;;;15.80;14.30;;;;;;;-128.00;-1.00;-1.00;105721;1251;1005336;-66
2023/08/21 05:20:19;;;;;;;16.10;14.30;;;;;;;-128.00;-1.00;-1.00;105682;1252;1005234;-67
2023/08/21 05:22:45;;;;;;;17.10;15.40;;;;;;;-128.00;-1.00;-1.00;105711;1252;1003666;-70
2023/08/21 05:25:12;;;;;;;15.40;14.00;;;;;;;-128.00;-1.00;-1.00;105727;1252;1003915;-70
2023/08/21 05:27:38;;;;;;;17.60;14.80;;;;;;;-128.00;-1.00;-1.00;105739;1253;1003701;-70
2023/08/21 05:30:06;;;;;;;15.10;13.90;;;;;;;-128.00;-1.00;-1.00;105644;1252;1003691;-71
2023/08/21 05:32:33;;;;;;;16.20;14.70;;;;;;;-128.00;-1.00;-1.00;105600;1253;1004889;-70
2023/08/21 05:34:59;;;;;;;15.30;13.80;;;;;;;-128.00;-1.00;-1.00;105739;1252;1004848;-71
2023/08/21 05:37:26;;;;;;;15.10;13.80;;;;;;;-128.00;-1.00;-1.00;105746;1254;1004530;-71
2023/08/21 05:39:53;;;;;;;14.50;13.20;;;;;;;-128.00;-1.00;-1.00;105760;1253;1005086;-72
2023/08/21 05:42:19;;;;;;;14.60;13.20;;;;;;;-128.00;-1.00;-1.00;105656;1251;1005893;-71
2023/08/21 05:44:46;;;;;;;16.10;14.50;;;;;;;-128.00;-1.00;-1.00;105717;1252;1004685;-70
2023/08/21 05:47:13;;;;;;;15.40;14.10;;;;;;;-128.00;-1.00;-1.00;105727;1253;1005687;-71
2023/08/21 05:49:39;;;;;;;15.20;13.70;;;;;;;-128.00;-1.00;-1.00;105743;1253;1005255;-70
2023/08/21 05:52:06;;;;;;;15.60;14.40;;;;;;;-128.00;-1.00;-1.00;105715;1253;1003649;-71
2023/08/21 05:54:32;;;;;;;14.70;13.40;;;;;;;-128.00;-1.00;-1.00;105530;1252;1003841;-71
2023/08/21 05:56:59;;;;;;;14.40;13.30;;;;;;;-128.00;-1.00;-1.00;105691;1253;1003289;-71
2023/08/21 05:59:32;;;;;;;13.50;12.40;;;;;;;-128.00;-1.00;-1.00;105745;1252;1004197;-71
2023/08/21 06:01:59;;;;;;;13.90;12.80;;;;;;;-128.00;-1.00;-1.00;105726;1253;1061461;-71
2023/08/21 06:04:27;;;;;;;14.00;12.90;;;;;;;-128.00;-1.00;-1.00;105737;1252;1004974;-70
2023/08/21 06:06:53;;;;;;;14.20;12.90;;;;;;;-128.00;-1.00;-1.00;105625;1251;1004471;-71
2023/08/21 06:09:20;;;;;;;14.70;13.50;;;;;;;-128.00;-1.00;-1.00;105703;1252;1005018;-71
2023/08/21 06:11:46;;;;;;;14.30;12.90;;;;;;;-128.00;-1.00;-1.00;105808;1252;1003813;-71
2023/08/21 06:14:13;;;;;;;14.10;12.90;;;;;;;-128.00;-1.00;-1.00;105768;1253;1004667;-70
2023/08/21 06:16:40;;;;;;;13.70;12.60;;;;;;;-128.00;-1.00;-1.00;105655;1252;1004236;-70
2023/08/21 06:19:06;;;;;;;15.10;13.60;;;;;;;-128.00;-1.00;-1.00;105726;1252;1004002;-72
2023/08/21 06:21:33;;;;;;;14.00;12.90;;;;;;;-128.00;-1.00;-1.00;105758;1252;1005402;-71
2023/08/21 06:24:00;;;;;;;14.60;13.00;;;;;;;-128.00;-1.00;-1.00;105738;1252;1005011;-72
2023/08/21 06:26:26;;;;;;;13.30;12.20;;;;;;;-128.00;-1.00;-1.00;105584;1253;1005842;-72
2023/08/21 06:28:53;;;;;;;15.40;13.90;;;;;;;-128.00;-1.00;-1.00;105703;1253;1004834;-72
2023/08/21 06:31:20;;;;;;;14.00;12.90;;;;;;;-128.00;-1.00;-1.00;105721;1252;1005107;-72
2023/08/21 06:33:46;;;;;;;15.10;13.60;;;;;;;-128.00;-1.00;-1.00;105732;1251;1003262;-71
2023/08/21 06:36:13;;;;;;;16.30;13.70;;;;;;;-128.00;-1.00;-1.00;105728;1253;1004624;-72
2023/08/21 06:38:40;;;;;;;16.30;14.90;;;;;;;-128.00;-1.00;-1.00;105750;1252;1005085;-71
2023/08/21 06:41:06;;;;;;;15.10;13.90;;;;;;;-128.00;-1.00;-1.00;105710;1252;1004923;-72
2023/08/21 06:43:33;;;;;;;15.60;13.50;;;;;;;-128.00;-1.00;-1.00;105669;1253;1004592;-71
2023/08/21 06:45:59;;;;;;;15.60;14.20;;;;;;;-128.00;-1.00;-1.00;105714;1254;1004063;-71
2023/08/21 06:48:26;;;;;;;14.80;13.50;;;;;;;-128.00;-1.00;-1.00;105746;1252;1004542;-72
2023/08/21 06:50:52;;;;;;;15.50;13.70;;;;;;;-128.00;-1.00;-1.00;105717;1252;1004781;-73
2023/08/21 06:53:19;;;;;;;14.80;13.40;;;;;;;-128.00;-1.00;-1.00;105767;1253;1005189;-74
2023/08/21 06:55:46;;;;;;;14.60;13.30;;;;;;;-128.00;-1.00;-1.00;105712;1253;1005162;-72
2023/08/21 06:58:12;;;;;;;14.70;13.40;;;;;;;-128.00;-1.00;-1.00;105701;1252;1004057;-72
2023/08/21 07:00:39;;;;;;;15.30;14.10;;;;;;;-128.00;-1.00;-1.00;105742;1251;1003689;-73
2023/08/21 07:03:07;;;;;;;14.70;13.40;;;;;;;-128.00;-1.00;-1.00;105678;1252;1005036;-72
2023/08/21 07:05:34;;;;;;;15.30;14.00;;;;;;;-128.00;-1.00;-1.00;105760;1252;1056024;-73
2023/08/21 07:08:00;;;;;;;14.80;13.40;;;;;;;-128.00;-1.00;-1.00;105679;1253;1004281;-72
2023/08/21 07:10:27;;;;;;;14.40;13.00;;;;;;;-128.00;-1.00;-1.00;105689;1252;1004704;-72
2023/08/21 07:12:53;;;;;;;14.50;13.30;;;;;;;-128.00;-1.00;-1.00;105737;1252;1004380;-73
2023/08/21 07:15:20;;;;;;;19.00;15.30;;;;;;;-128.00;-1.00;-1.00;105750;1253;1004509;-71
2023/08/21 07:17:47;;;;;;;15.80;14.20;;;;;;;-128.00;-1.00;-1.00;105685;1252;1004664;-71
2023/08/21 07:20:13;;;;;;;16.10;14.50;;;;;;;-128.00;-1.00;-1.00;105739;1253;1003681;-72
2023/08/21 07:22:40;;;;;;;18.00;15.70;;;;;;;-128.00;-1.00;-1.00;105705;1252;1003526;-71
2023/08/21 07:25:07;;;;;;;15.90;14.40;;;;;;;-128.00;-1.00;-1.00;105744;1253;1004792;-72
2023/08/21 07:27:33;;;;;;;15.60;14.20;;;;;;;-128.00;-1.00;-1.00;105728;1252;1005840;-72
2023/08/21 07:30:00;;;;;;;15.50;14.00;;;;;;;-128.00;-1.00;-1.00;105710;1253;1004028;-72
2023/08/21 07:32:27;;;;;;;15.80;14.50;;;;;;;-128.00;-1.00;-1.00;105677;1251;1004442;-72
2023/08/21 07:34:54;;;;;;;16.40;15.10;;;;;;;-128.00;-1.00;-1.00;105600;1254;1004646;-73
2023/08/21 07:37:20;;;;;;;15.20;13.80;;;;;;;-128.00;-1.00;-1.00;105715;1253;1003904;-72
2023/08/21 07:39:47;;;;;;;15.30;14.00;;;;;;;-128.00;-1.00;-1.00;105744;1254;1005085;-72
2023/08/21 07:42:14;;;;;;;15.80;14.40;;;;;;;-128.00;-1.00;-1.00;105718;1253;1004324;-72
2023/08/21 07:44:40;;;;;;;15.20;13.70;;;;;;;-128.00;-1.00;-1.00;105698;1254;1004233;-72
2023/08/21 07:47:07;;;;;;;15.20;13.90;;;;;;;-128.00;-1.00;-1.00;105717;1253;1004091;-73
2023/08/21 07:49:33;;;;;;;15.60;14.10;;;;;;;-128.00;-1.00;-1.00;105763;1252;1004827;-71
2023/08/21 07:52:00;;;;;;;16.80;15.30;;;;;;;-128.00;-1.00;-1.00;105706;1253;1004299;-72
2023/08/21 07:54:26;;;;;;;16.40;15.00;;;;;;;-128.00;-1.00;-1.00;105676;1253;1004576;-72
2023/08/21 07:56:53;;;;;;;16.00;14.70;;;;;;;-128.00;-1.00;-1.00;105714;1252;1003823;-73
2023/08/21 07:59:20;;;;;;;15.90;14.50;;;;;;;-128.00;-1.00;-1.00;105734;1252;1004775;-73
2023/08/21 08:01:46;;;;;;;20.60;14.60;;;;;;;-128.00;-1.00;-1.00;105718;1253;1003848;-73
2023/08/21 08:04:13;;;;;;;15.50;14.10;;;;;;;-128.00;-1.00;-1.00;105736;1252;1003671;-72
2023/08/21 08:06:39;;;;;;;16.30;14.70;;;;;;;-128.00;-1.00;-1.00;105759;1253;1003632;-71
2023/08/21 08:09:06;;;;;;;15.40;13.90;;;;;;;-128.00;-1.00;-1.00;105666;1252;1003977;-72
2023/08/21 08:11:33;;;;;;;15.60;14.10;;;;;;;-128.00;-1.00;-1.00;105726;1252;1006171;-72
2023/08/21 08:13:59;;;;;;;16.20;14.90;;;;;;;-128.00;-1.00;-1.00;105725;1252;1003434;-71
2023/08/21 08:16:26;;;;;;;16.50;15.00;;;;;;;-128.00;-1.00;-1.00;105715;1253;1004390;-72
2023/08/21 08:18:53;;;;;;;15.40;13.90;;;;;;;-128.00;-1.00;-1.00;105726;1252;1003366;-72
2023/08/21 08:21:19;;;;;;;17.60;16.00;;;;;;;-128.00;-1.00;-1.00;105711;1254;1005309;-72
2023/08/21 08:23:46;;;;;;;16.60;14.60;;;;;;;-128.00;-1.00;-1.00;105673;1254;1003848;-72
2023/08/21 08:26:12;;;;;;;18.20;15.90;;;;;;;-128.00;-1.00;-1.00;105721;1252;1004518;-72
2023/08/21 08:28:39;;;;;;;16.70;15.10;;;;;;;-128.00;-1.00;-1.00;105661;1252;1003215;-71
2023/08/21 08:31:06;;;;;;;18.00;15.90;;;;;;;-128.00;-1.00;-1.00;105666;1254;1005057;-72
2023/08/21 08:33:32;;;;;;;15.70;14.40;;;;;;;-128.00;-1.00;-1.00;105693;1253;1003843;-72
2023/08/21 08:35:59;;;;;;;17.00;15.30;;;;;;;-128.00;-1.00;-1.00;105687;1252;1004007;-72
2023/08/21 08:38:25;;;;;;;18.40;16.60;;;;;;;-128.00;-1.00;-1.00;105753;1253;1004166;-72
2023/08/21 08:40:54;;;;;;;19.20;17.10;;;;;;;-128.00;-1.00;-1.00;105700;1253;1003878;-72
2023/08/21 08:43:24;;;;;;;18.80;17.20;;;;;;;-128.00;-1.00;-1.00;105722;1253;1055925;-72
2023/08/21 08:45:54;;;;;;;18.80;16.80;;;;;;;-128.00;-1.00;-1.00;105699;1253;1059816;-72
2023/08/21 08:48:21;;;;;;;19.60;17.70;;;;;;;-128.00;-1.00;-1.00;105708;1254;1044909;-72
2023/08/21 08:50:50;;;;;;;18.90;17.20;;;;;;;-128.00;-1.00;-1.00;105743;1252;1004422;-72
2023/08/21 08:53:17;;;;;;;19.70;17.90;;;;;;;-128.00;-1.00;-1.00;105704;1253;1061302;-72
2023/08/21 08:55:45;;;;;;;21.70;18.80;;;;;;;-128.00;-1.00;-1.00;105737;1251;1003713;-72
2023/08/21 08:58:11;;;;;;;21.60;19.30;;;;;;;-128.00;-1.00;-1.00;105652;1254;1004321;-72
2023/08/21 09:00:38;;;;;;;22.70;20.30;;;;;;;-128.00;-1.00;-1.00;105698;1253;1004053;-72
2023/08/21 09:03:05;;;;;;;21.10;19.00;;;;;;;-128.00;-1.00;-1.00;105786;1252;1004398;-72
2023/08/21 09:05:34;;;;;;;26.50;21.00;;;;;;;-128.00;-1.00;-1.00;105723;1253;1003752;-72
2023/08/21 09:08:06;;;;;;;21.50;19.30;;;;;;;-128.00;-1.00;-1.00;105707;1254;1055508;-72
2023/08/21 09:10:33;;;;;;;24.80;22.30;;;;;;;-128.00;-1.00;-1.00;105701;1254;1059598;-72
2023/08/21 09:13:01;;;;;;;23.30;20.60;;;;;;;-128.00;-1.00;-1.00;105700;1254;1003712;-72
2023/08/21 09:15:29;;;;;;;21.90;19.80;;;;;;;-128.00;-1.00;-1.00;105792;1251;1047350;-72
2023/08/21 09:17:56;;;;;;;46.90;23.20;;;;;;;-128.00;-1.00;-1.00;105782;1251;1004926;-72
2023/08/21 09:20:23;;;;;;;21.70;19.70;;;;;;;-128.00;-1.00;-1.00;105789;1251;1004350;-72
2023/08/21 09:22:55;;;;;;;21.60;19.50;;;;;;;-128.00;-1.00;-1.00;105758;1251;1004843;-76
2023/08/21 09:25:24;;;;;;;21.70;19.60;;;;;;;-128.00;-1.00;-1.00;105669;1251;1045089;-76
2023/08/21 09:27:53;;;;;;;22.30;20.30;;;;;;;-128.00;-1.00;-1.00;105735;1251;1047193;-75
2023/08/21 09:30:20;;;;;;;21.60;19.50;;;;;;;-128.00;-1.00;-1.00;105666;1254;1062245;-75
2023/08/21 09:33:04;;;;;;;21.50;19.40;;;;;;;-128.00;-1.00;-1.00;105803;1251;1003770;-75
2023/08/21 09:35:33;;;;;;;23.70;20.90;;;;;;;-128.00;-1.00;-1.00;105749;1251;1059406;-77
2023/08/21 09:37:59;;;;;;;31.40;23.30;;;;;;;-128.00;-1.00;-1.00;105486;1251;1044163;-76
2023/08/21 09:40:26;;;;;;;24.70;22.20;;;;;;;-128.00;-1.00;-1.00;105743;1251;1006185;-75
2023/08/21 09:42:54;;;;;;;23.60;21.30;;;;;;;-128.00;-1.00;-1.00;105752;1251;1003797;-79
2023/08/21 09:45:25;;;;;;;23.20;21.00;;;;;;;-128.00;-1.00;-1.00;105442;1256;1004449;-75
2023/08/21 09:47:55;;;;;;;25.10;20.70;;;;;;;-128.00;-1.00;-1.00;105423;1256;1059329;-75
2023/08/21 09:50:22;;;;;;;22.70;20.50;;;;;;;-128.00;-1.00;-1.00;105439;1257;1046761;-77
2023/08/21 09:52:49;;;;;;;23.40;21.00;;;;;;;-128.00;-1.00;-1.00;105466;1256;1004873;-77
2023/08/21 09:55:17;;;;;;;23.00;20.70;;;;;;;-128.00;-1.00;-1.00;105420;1255;1004717;-79
2023/08/21 09:57:45;;;;;;;21.70;19.70;;;;;;;-128.00;-1.00;-1.00;105235;1256;1003830;-77
2023/08/21 10:00:20;;;;;;;21.60;19.60;;;;;;;-128.00;-1.00;-1.00;105445;1256;1004132;-76
2023/08/21 10:02:51;;;;;;;22.20;20.00;;;;;;;-128.00;-1.00;-1.00;105441;1256;1045890;-77
2023/08/21 10:05:19;;;;;;;20.90;18.90;;;;;;;-128.00;-1.00;-1.00;105251;1256;1047982;-75
2023/08/21 10:07:48;;;;;;;22.90;20.50;;;;;;;-128.00;-1.00;-1.00;105484;1256;1004513;-73
2023/08/21 10:10:16;;;;;;;21.80;19.70;;;;;;;-128.00;-1.00;-1.00;105446;1255;1057088;-73
2023/08/21 10:12:43;;;;;;;27.10;21.10;;;;;;;-128.00;-1.00;-1.00;105490;1256;1004899;-73
2023/08/21 10:15:10;;;;;;;22.00;19.70;;;;;;;-128.00;-1.00;-1.00;105467;1254;1005141;-74
2023/08/21 10:17:37;;;;;;;18.60;17.10;;;;;;;-128.00;-1.00;-1.00;105710;1254;1004860;-76
2023/08/21 10:20:06;;;;;;;19.10;17.20;;;;;;;-128.00;-1.00;-1.00;105716;1251;1004757;-77
2023/08/21 10:22:42;;;;;;;20.60;18.70;;;;;;;-128.00;-1.00;-1.00;105739;1251;1003307;-79
2023/08/21 10:25:28;;;;;;;20.00;18.20;;;;;;;-128.00;-1.00;-1.00;105704;1251;1060129;-79
2023/08/21 10:27:57;;;;;;;19.70;17.90;;;;;;;-128.00;-1.00;-1.00;105708;1251;1045059;-78
2023/08/21 10:30:28;;;;;;;22.30;17.90;;;;;;;-128.00;-1.00;-1.00;105758;1251;1046385;-77
2023/08/21 10:32:58;;;;;;;21.50;19.40;;;;;;;-128.00;-1.00;-1.00;105795;1251;1061358;-77
2023/08/21 10:35:29;;;;;;;20.10;18.30;;;;;;;-128.00;-1.00;-1.00;105787;1253;1054691;-84
2023/08/21 10:38:07;;;;;;;20.20;18.50;;;;;;;-128.00;-1.00;-1.00;105886;1251;1060055;-81
2023/08/21 10:40:34;;;;;;;20.40;18.40;;;;;;;-128.00;-1.00;-1.00;105739;1253;1046179;-76
2023/08/21 10:43:02;;;;;;;21.50;19.50;;;;;;;-128.00;-1.00;-1.00;105506;1254;1004741;-75
2023/08/21 10:45:31;;;;;;;20.00;18.10;;;;;;;-128.00;-1.00;-1.00;105771;1253;1003379;-76
2023/08/21 10:47:59;;;;;;;19.80;18.10;;;;;;;-128.00;-1.00;-1.00;105714;1254;1054976;-75
2023/08/21 10:50:26;;;;;;;19.50;17.70;;;;;;;-128.00;-1.00;-1.00;105712;1254;1004710;-74
2023/08/21 10:52:53;;;;;;;19.40;17.50;;;;;;;-128.00;-1.00;-1.00;105719;1253;1003858;-75
2023/08/21 10:55:20;;;;;;;19.90;18.10;;;;;;;-128.00;-1.00;-1.00;105679;1254;1004119;-75
2023/08/21 10:57:48;;;;;;;19.80;18.10;;;;;;;-128.00;-1.00;-1.00;105800;1251;1004657;-75
2023/08/21 11:00:20;;;;;;;18.50;16.80;;;;;;;-128.00;-1.00;-1.00;105752;1251;1004592;-75
2023/08/21 11:02:49;;;;;;;17.80;16.00;;;;;;;-128.00;-1.00;-1.00;105761;1251;1058064;-75